createdAt,value
2018-11-25T00:04:28.175Z,6.4
2018-11-25T00:09:25.005Z,6.4
2018-11-25T00:14:21.831Z,6.4
2018-11-25T00:19:18.821Z,6.4
2018-11-25T00:24:15.565Z,6.7
2018-11-25T00:29:12.616Z,6.7
2018-11-25T00:34:09.349Z,6.7
2018-11-25T00:39:05.483Z,6.5
2018-11-25T00:44:02.430Z,6.6
2018-11-25T00:48:59.110Z,6.5
2018-11-25T00:53:56.181Z,6.5
2018-11-25T00:58:52.890Z,6.6
2018-11-25T01:03:49.661Z,6.4
2018-11-25T01:08:46.431Z,6.4
2018-11-25T01:13:43.329Z,6.4
2018-11-25T01:18:40.271Z,6.4
2018-11-25T01:23:37.390Z,6.4
2018-11-25T01:28:33.986Z,6.4
2018-11-25T01:33:30.833Z,6.4
2018-11-25T01:38:27.452Z,6.4
2018-11-25T01:43:24.333Z,6.5
2018-11-25T01:48:21.225Z,6.9
2018-11-25T01:53:18.425Z,6.9
2018-11-25T01:58:15.375Z,6.9
2018-11-25T02:03:12.088Z,6.9
2018-11-25T02:08:08.837Z,6.8
2018-11-25T02:13:05.616Z,6.9
2018-11-25T02:18:02.590Z,6.9
2018-11-25T02:23:02.042Z,7
2018-11-25T02:27:58.870Z,6.9
2018-11-25T02:32:55.627Z,6.8
2018-11-25T02:37:52.353Z,6.5
2018-11-25T02:42:49.136Z,6.8
2018-11-25T02:47:45.966Z,6.8
2018-11-25T02:52:43.032Z,6.7
2018-11-25T02:57:39.887Z,6.9
2018-11-25T03:02:36.581Z,6.9
2018-11-25T03:07:33.607Z,6.8
2018-11-25T03:12:30.445Z,6.8
2018-11-25T03:17:27.438Z,6.8
2018-11-25T03:22:24.253Z,6.8
2018-11-25T03:27:21.072Z,6.9
2018-11-25T03:32:17.820Z,6.9
2018-11-25T03:37:14.512Z,6.8
2018-11-25T03:42:11.234Z,6.8
2018-11-25T03:47:08.261Z,6.8
2018-11-25T03:52:05.285Z,6.8
2018-11-25T03:57:02.227Z,6.7
2018-11-25T04:01:59.206Z,6.6
2018-11-25T04:06:56.332Z,6.6
2018-11-25T04:11:53.045Z,6.7
2018-11-25T04:16:49.933Z,6.5
2018-11-25T04:21:47.125Z,6.6
2018-11-25T04:26:43.678Z,6.3
2018-11-25T04:31:40.387Z,6.2
2018-11-25T04:36:37.167Z,6.5
2018-11-25T04:41:33.901Z,6.5
2018-11-25T04:46:30.793Z,6.5
2018-11-25T04:51:27.864Z,6.5
2018-11-25T04:56:24.894Z,6.6
2018-11-25T05:01:21.778Z,6.5
2018-11-25T05:06:18.737Z,5.9
2018-11-25T05:11:15.418Z,6.5
2018-11-25T05:16:12.032Z,6.3
2018-11-25T05:21:08.747Z,6.2
2018-11-25T05:26:05.895Z,6.3
2018-11-25T05:31:02.644Z,6.5
2018-11-25T05:35:59.560Z,6.5
2018-11-25T05:40:56.366Z,6.5
2018-11-25T05:45:53.236Z,5.9
2018-11-25T05:50:50.057Z,6.4
2018-11-25T05:55:46.952Z,6.5
2018-11-25T06:00:43.902Z,6.5
2018-11-25T06:05:40.961Z,6.5
2018-11-25T06:10:37.835Z,6.5
2018-11-25T06:15:34.547Z,5.9
2018-11-25T06:20:31.477Z,6.5
2018-11-25T06:25:28.165Z,6
2018-11-25T06:30:24.981Z,6.5
2018-11-25T06:35:21.808Z,6.6
2018-11-25T06:40:18.716Z,6.1
2018-11-25T06:45:15.450Z,6.1
2018-11-25T06:50:12.571Z,6.1
2018-11-25T06:55:09.442Z,6.2
2018-11-25T07:00:06.501Z,6.2
2018-11-25T07:05:03.177Z,6.1
2018-11-25T07:10:00.027Z,6
2018-11-25T07:14:56.828Z,6.1
2018-11-25T07:19:53.574Z,6.7
2018-11-25T07:24:50.571Z,6.2
2018-11-25T07:29:47.429Z,6.1
2018-11-25T07:34:43.761Z,6.1
2018-11-25T07:39:40.669Z,6.1
2018-11-25T07:44:37.337Z,6.2
2018-11-25T07:49:34.259Z,5.4
2018-11-25T07:54:31.109Z,6.3
2018-11-25T07:59:27.904Z,6.9
2018-11-25T08:04:24.797Z,6.3
2018-11-25T08:09:21.659Z,6.3
2018-11-25T08:14:18.593Z,6.3
2018-11-25T08:19:15.794Z,6.9
2018-11-25T08:24:13.224Z,6.9
2018-11-25T08:29:09.979Z,6.4
2018-11-25T08:34:06.781Z,6.5
2018-11-25T08:39:03.680Z,6.5
2018-11-25T08:44:00.649Z,6.5
2018-11-25T08:48:57.672Z,6.6
2018-11-25T08:53:54.705Z,7
2018-11-25T08:58:51.057Z,6.7
2018-11-25T09:03:47.998Z,6.7
2018-11-25T09:08:44.798Z,7.2
2018-11-25T09:13:41.574Z,7.3
2018-11-25T09:18:38.388Z,7.4
2018-11-25T09:23:35.148Z,7.4
2018-11-25T09:28:31.832Z,7.5
2018-11-25T09:33:28.666Z,7.3
2018-11-25T09:38:25.528Z,7.7
2018-11-25T09:43:22.388Z,7.8
2018-11-25T09:48:19.281Z,7.9
2018-11-25T09:53:16.496Z,7.9
2018-11-25T09:58:13.271Z,8
2018-11-25T10:03:10.184Z,8.1
2018-11-25T10:08:07.136Z,8.1
2018-11-25T10:13:03.856Z,8.2
2018-11-25T10:18:00.455Z,8.3
2018-11-25T10:22:57.492Z,8.3
2018-11-25T10:27:54.344Z,8.4
2018-11-25T10:32:51.475Z,8.4
2018-11-25T10:37:48.122Z,8.5
2018-11-25T10:42:44.824Z,8.5
2018-11-25T10:47:41.692Z,8.6
2018-11-25T10:52:38.486Z,8.6
2018-11-25T10:57:35.373Z,8.7
2018-11-25T11:02:31.996Z,8.8
2018-11-25T11:07:28.762Z,8.8
2018-11-25T11:12:25.359Z,8.9
2018-11-25T11:17:22.388Z,8.9
2018-11-25T11:22:18.833Z,9
2018-11-25T11:27:16.317Z,8.5
2018-11-25T11:32:12.952Z,9.1
2018-11-25T11:37:10.058Z,8.8
2018-11-25T11:42:06.586Z,9.1
2018-11-25T11:47:03.504Z,9.1
2018-11-25T11:52:00.918Z,8.7
2018-11-25T11:56:57.837Z,9.3
2018-11-25T12:01:54.744Z,9.4
2018-11-25T12:06:51.586Z,9.4
2018-11-25T12:11:48.435Z,9.5
2018-11-25T12:16:45.488Z,9.6
2018-11-25T12:21:47.148Z,9.2
2018-11-25T12:26:42.779Z,9.9
2018-11-25T12:31:41.202Z,9.5
2018-11-25T12:36:37.663Z,10.3
2018-11-25T12:41:35.229Z,9.7
2018-11-25T12:46:31.465Z,10.6
2018-11-25T12:51:28.689Z,10.7
2018-11-25T12:56:25.748Z,10.8
2018-11-25T13:01:22.628Z,10.9
2018-11-25T13:06:19.555Z,11
2018-11-25T13:11:16.629Z,11.1
2018-11-25T13:16:13.817Z,10.6
2018-11-25T13:21:10.791Z,11.1
2018-11-25T13:26:07.548Z,11.1
2018-11-25T13:31:04.677Z,11
2018-11-25T13:36:01.227Z,11
2018-11-25T13:40:58.270Z,10.4
2018-11-25T13:45:55.167Z,10.3
2018-11-25T13:50:52.212Z,10.8
2018-11-25T13:55:48.987Z,10.8
2018-11-25T14:00:46.074Z,10.7
2018-11-25T14:05:42.616Z,10
2018-11-25T14:10:39.442Z,10.5
2018-11-25T14:15:36.239Z,10.6
2018-11-25T14:20:33.167Z,10.6
2018-11-25T14:25:30.201Z,10.6
2018-11-25T14:30:27.033Z,10.6
2018-11-25T14:35:23.993Z,10.4
2018-11-25T14:40:21.028Z,10
2018-11-25T14:45:17.757Z,10
2018-11-25T14:50:14.786Z,10.5
2018-11-25T14:55:11.692Z,10.4
2018-11-25T15:00:08.791Z,10.4
2018-11-25T15:05:05.776Z,10.4
2018-11-25T15:10:02.636Z,10.4
2018-11-25T15:14:59.744Z,10.3
2018-11-25T15:19:56.842Z,10.3
2018-11-25T15:24:53.480Z,10.2
2018-11-25T15:29:50.367Z,10.2
2018-11-25T15:34:47.067Z,10.1
2018-11-25T15:39:44.087Z,10.1
2018-11-25T15:44:40.990Z,10.1
2018-11-25T15:49:37.806Z,10.1
2018-11-25T15:54:35.022Z,10.1
2018-11-25T15:59:31.544Z,10.1
2018-11-25T16:04:28.504Z,10.1
2018-11-25T16:09:25.432Z,10.1
2018-11-25T16:14:22.182Z,10.1
2018-11-25T16:19:18.889Z,10.1
2018-11-25T16:24:15.818Z,10.1
2018-11-25T16:29:12.873Z,10.1
2018-11-25T16:34:09.430Z,10
2018-11-25T16:39:06.118Z,10.1
2018-11-25T16:44:02.935Z,10.1
2018-11-25T16:48:59.982Z,10.1
2018-11-25T16:53:57.098Z,10
2018-11-25T16:58:54.022Z,10
2018-11-25T17:03:50.872Z,10
2018-11-25T17:08:47.806Z,10
2018-11-25T17:13:44.605Z,10
2018-11-25T17:18:41.629Z,10
2018-11-25T17:23:38.584Z,10
2018-11-25T17:28:35.621Z,10
2018-11-25T17:33:32.328Z,10
2018-11-25T17:38:29.148Z,10.1
2018-11-25T17:43:25.802Z,10.1
2018-11-25T17:48:33.014Z,10
2018-11-25T17:53:30.653Z,10.1
2018-11-25T17:58:27.306Z,10
2018-11-25T18:03:24.313Z,10.1
2018-11-25T18:08:21.382Z,10.1
2018-11-25T18:13:18.151Z,10.1
2018-11-25T18:18:14.940Z,10.1
2018-11-25T18:23:11.987Z,10.1
2018-11-25T18:28:08.405Z,10
2018-11-25T18:33:05.287Z,10
2018-11-25T18:38:02.016Z,10
2018-11-25T18:42:58.907Z,10
2018-11-25T18:47:55.898Z,9.4
2018-11-25T18:52:52.735Z,10.1
2018-11-25T18:57:49.393Z,10.1
2018-11-25T19:02:46.544Z,10.1
2018-11-25T19:07:43.608Z,9.6
2018-11-25T19:12:44.140Z,10
2018-11-25T19:17:37.311Z,9.5
2018-11-25T19:22:38.212Z,10
2018-11-25T19:27:35.187Z,10.1
2018-11-25T19:32:37.992Z,10
2018-11-25T19:37:40.241Z,10
2018-11-25T19:42:37.107Z,10.1
2018-11-25T19:47:33.687Z,10
2018-11-25T19:52:32.990Z,9.9
2018-11-25T19:57:29.624Z,9.9
2018-11-25T20:02:26.934Z,9.9
2018-11-25T20:07:26.081Z,9.8
2018-11-25T20:12:29.016Z,9.8
2018-11-25T20:17:36.530Z,9.8
2018-11-25T20:22:36.987Z,9.9
2018-11-25T20:27:37.390Z,9.8
2018-11-25T20:32:38.226Z,9.8
2018-11-25T20:37:37.515Z,9.8
2018-11-25T20:42:40.280Z,9.7
2018-11-25T20:47:38.073Z,9.7
2018-11-25T20:52:35.130Z,9.6
2018-11-25T20:57:38.084Z,9.6
2018-11-25T21:02:37.011Z,9.6
2018-11-25T21:07:33.432Z,9.6
2018-11-25T21:12:33.182Z,9.5
2018-11-25T21:17:32.836Z,9.5
2018-11-25T21:22:37.400Z,8.9
2018-11-25T21:27:35.017Z,8.9
2018-11-25T21:32:31.084Z,9.3
2018-11-25T21:37:28.972Z,9.4
2018-11-25T21:42:26.790Z,9.3
2018-11-25T21:47:32.152Z,9.3
2018-11-25T21:52:31.736Z,9.2
2018-11-25T21:57:32.430Z,9.2
2018-11-25T22:02:37.308Z,9.2
2018-11-25T22:07:40.805Z,9.2
2018-11-25T22:12:43.537Z,9.2
2018-11-25T22:17:45.597Z,9.1
2018-11-25T22:22:49.102Z,9.1
2018-11-25T22:27:49.520Z,9.1
2018-11-25T22:32:56.615Z,9
2018-11-25T22:38:00.725Z,9
2018-11-25T22:43:04.372Z,9
2018-11-25T22:48:08.543Z,8.9
2018-11-25T22:53:12.624Z,8.8
2018-11-25T22:58:09.580Z,8.8
2018-11-25T23:03:14.436Z,8.7
2018-11-25T23:08:18.950Z,8.8
2018-11-25T23:13:20.998Z,8.8
2018-11-25T23:18:25.640Z,8.8
2018-11-25T23:23:27.657Z,8.8
2018-11-25T23:28:36.074Z,8.8
2018-11-25T23:33:40.842Z,8.8
2018-11-25T23:38:44.712Z,8.7
2018-11-25T23:43:49.552Z,8.7
2018-11-25T23:48:57.723Z,8.7
2018-11-25T23:53:55.854Z,8.7
2018-11-25T23:58:58.458Z,8.5
